createdAt,value
2019-03-09T00:00:56.565Z,5.35
2019-03-09T00:03:28.544Z,5.38
2019-03-09T00:06:00.607Z,5.36
2019-03-09T00:08:32.693Z,5.33
2019-03-09T00:11:04.632Z,5.30
2019-03-09T00:13:36.666Z,5.32
2019-03-09T00:16:08.676Z,5.35
2019-03-09T00:18:40.697Z,5.28
2019-03-09T00:21:12.586Z,5.21
2019-03-09T00:24:03.332Z,5.16
2019-03-09T00:26:57.544Z,5.20
2019-03-09T00:29:51.065Z,5.09
2019-03-09T00:32:25.100Z,5.01
2019-03-09T00:34:57.050Z,5.03
2019-03-09T00:37:28.903Z,5.00
2019-03-09T00:40:00.822Z,5.07
2019-03-09T00:42:34.592Z,5.07
2019-03-09T00:45:06.663Z,5.13
2019-03-09T00:47:38.496Z,5.20
2019-03-09T00:50:11.292Z,5.26
2019-03-09T00:52:43.112Z,5.26
2019-03-09T00:55:15.201Z,5.28
2019-03-09T00:57:47.188Z,5.36
2019-03-09T01:00:21.038Z,5.35
2019-03-09T01:02:52.929Z,5.42
2019-03-09T01:05:24.807Z,5.44
2019-03-09T01:07:56.698Z,5.49
2019-03-09T01:10:28.576Z,5.58
2019-03-09T01:13:00.418Z,5.70
2019-03-09T01:15:32.367Z,5.79
2019-03-09T01:18:04.322Z,5.83
2019-03-09T01:20:36.225Z,5.91
2019-03-09T01:23:08.086Z,6.02
2019-03-09T01:25:39.948Z,6.08
2019-03-09T01:28:11.833Z,6.12
2019-03-09T01:30:43.654Z,6.19
2019-03-09T01:33:15.514Z,6.22
2019-03-09T01:35:47.537Z,6.29
2019-03-09T01:38:19.397Z,6.34
2019-03-09T01:40:51.283Z,6.37
2019-03-09T01:43:23.147Z,6.35
2019-03-09T01:45:56.075Z,6.28
2019-03-09T01:48:27.947Z,6.28
2019-03-09T01:50:59.765Z,6.24
2019-03-09T01:53:36.789Z,6.21
2019-03-09T01:56:05.347Z,6.16
2019-03-09T01:58:37.222Z,6.21
2019-03-09T02:01:09.128Z,6.20
2019-03-09T02:03:41.023Z,6.20
2019-03-09T02:06:13.094Z,6.18
2019-03-09T02:08:44.935Z,6.24
2019-03-09T02:11:16.843Z,6.28
2019-03-09T02:13:48.674Z,6.27
2019-03-09T02:16:20.703Z,6.31
2019-03-09T02:18:52.527Z,6.31
2019-03-09T02:21:25.160Z,6.27
2019-03-09T02:23:57.008Z,6.21
2019-03-09T02:26:29.052Z,6.06
2019-03-09T02:29:01.191Z,5.89
2019-03-09T02:31:33.173Z,5.78
2019-03-09T02:34:05.079Z,5.68
2019-03-09T02:36:36.926Z,5.61
2019-03-09T02:39:20.345Z,5.54
2019-03-09T02:41:52.433Z,5.50
2019-03-09T02:44:24.309Z,5.55
2019-03-09T02:46:57.295Z,5.57
2019-03-09T02:49:29.142Z,5.62
2019-03-09T02:52:01.108Z,5.68
2019-03-09T02:54:32.974Z,5.76
2019-03-09T02:57:04.847Z,5.77
2019-03-09T02:59:36.701Z,5.80
2019-03-09T03:02:30.366Z,5.85
2019-03-09T03:05:02.239Z,5.84
2019-03-09T03:07:34.189Z,5.93
2019-03-09T03:10:07.077Z,5.99
2019-03-09T03:12:38.951Z,5.99
2019-03-09T03:15:12.228Z,6.08
2019-03-09T03:17:44.066Z,6.15
2019-03-09T03:20:16.015Z,6.19
2019-03-09T03:22:47.942Z,6.23
2019-03-09T03:25:19.812Z,6.26
2019-03-09T03:27:51.682Z,6.29
2019-03-09T03:30:23.631Z,6.29
2019-03-09T03:32:56.415Z,6.31
2019-03-09T03:35:28.271Z,6.20
2019-03-09T03:38:00.150Z,6.14
2019-03-09T03:40:31.986Z,6.13
2019-03-09T03:43:03.858Z,6.06
2019-03-09T03:45:35.702Z,6.12
2019-03-09T03:48:07.551Z,6.10
2019-03-09T03:50:39.409Z,6.04
2019-03-09T03:53:11.301Z,5.97
2019-03-09T03:55:43.170Z,5.96
2019-03-09T03:58:15.235Z,5.95
2019-03-09T04:00:47.141Z,6.02
2019-03-09T04:03:19.053Z,6.15
2019-03-09T04:05:51.030Z,6.21
2019-03-09T04:08:23.174Z,6.36
2019-03-09T04:10:55.441Z,6.38
2019-03-09T04:13:27.339Z,6.42
2019-03-09T04:15:59.296Z,6.39
2019-03-09T04:18:32.425Z,6.33
2019-03-09T04:21:04.433Z,6.25
2019-03-09T04:23:36.458Z,6.24
2019-03-09T04:26:08.344Z,6.23
2019-03-09T04:28:40.338Z,6.26
2019-03-09T04:31:12.404Z,6.33
2019-03-09T04:33:44.547Z,6.21
2019-03-09T04:36:19.492Z,6.15
2019-03-09T04:38:52.803Z,6.08
2019-03-09T04:41:26.413Z,6.13
2019-03-09T04:44:02.924Z,6.22
2019-03-09T04:46:33.773Z,6.29
2019-03-09T04:49:05.738Z,6.45
2019-03-09T04:51:38.999Z,6.45
2019-03-09T04:54:10.932Z,6.48
2019-03-09T04:56:43.914Z,6.54
2019-03-09T04:59:18.348Z,6.56
2019-03-09T05:01:50.330Z,6.48
2019-03-09T05:04:55.796Z,6.43
2019-03-09T05:08:06.433Z,6.46
2019-03-09T05:11:05.167Z,6.35
2019-03-09T05:14:15.138Z,6.32
2019-03-09T05:16:48.821Z,6.35
2019-03-09T05:19:26.126Z,6.44
2019-03-09T05:22:01.449Z,6.58
2019-03-09T05:24:35.185Z,6.66
2019-03-09T05:27:07.882Z,6.82
2019-03-09T05:29:46.801Z,6.97
2019-03-09T05:32:22.458Z,7.04
2019-03-09T05:34:57.943Z,7.14
2019-03-09T05:37:42.678Z,7.20
2019-03-09T05:40:07.707Z,7.27
2019-03-09T05:42:46.798Z,7.35
2019-03-09T05:45:23.531Z,7.44
2019-03-09T05:47:55.501Z,7.49
2019-03-09T05:50:31.641Z,7.56
2019-03-09T05:53:15.685Z,7.62
2019-03-09T05:55:53.615Z,7.67
2019-03-09T05:58:27.299Z,7.75
2019-03-09T06:00:59.346Z,7.70
2019-03-09T06:03:39.597Z,7.75
2019-03-09T06:06:20.778Z,7.62
2019-03-09T06:08:56.209Z,7.56
2019-03-09T06:11:29.471Z,7.52
2019-03-09T06:14:04.300Z,7.63
2019-03-09T06:16:36.233Z,7.51
2019-03-09T06:19:08.351Z,7.55
2019-03-09T06:21:40.247Z,7.52
2019-03-09T06:24:12.165Z,7.44
2019-03-09T06:26:44.385Z,7.56
2019-03-09T06:29:16.301Z,7.49
2019-03-09T06:32:44.045Z,7.38
2019-03-09T06:35:17.893Z,7.41
2019-03-09T06:38:03.866Z,7.31
2019-03-09T06:40:48.914Z,7.18
2019-03-09T06:43:22.669Z,7.15
2019-03-09T06:45:54.911Z,7.04
2019-03-09T06:48:26.945Z,7.03
2019-03-09T06:51:00.797Z,7.02
2019-03-09T10:40:49.194Z,10.30
2019-03-09T10:43:21.020Z,10.32
2019-03-09T10:45:52.883Z,10.32
2019-03-09T10:48:25.028Z,10.62
2019-03-09T10:50:57.077Z,11.07
2019-03-09T10:53:29.040Z,10.97
2019-03-09T10:56:01.015Z,11.10
2019-03-09T10:58:33.057Z,11.28
2019-03-09T11:01:07.841Z,11.33
2019-03-09T11:03:39.954Z,11.53
2019-03-09T11:06:12.294Z,11.59
2019-03-09T11:08:46.443Z,11.94
2019-03-09T11:11:18.648Z,11.93
2019-03-09T11:13:52.165Z,11.97
2019-03-09T11:16:58.432Z,12.17
2019-03-09T11:31:28.226Z,13.40
2019-03-09T11:34:00.315Z,13.11
2019-03-09T11:36:44.135Z,13.23
2019-03-09T11:39:12.910Z,13.27
2019-03-09T11:41:45.285Z,13.20
2019-03-09T11:44:17.461Z,13.12
2019-03-09T11:46:49.556Z,13.19
2019-03-09T11:49:21.629Z,13.08
2019-03-09T11:51:55.195Z,13.21
2019-03-09T11:54:27.348Z,13.14
2019-03-09T11:56:59.504Z,13.07
2019-03-09T11:59:31.774Z,13.19
2019-03-09T12:02:04.831Z,13.40
2019-03-09T12:04:46.264Z,13.56
2019-03-09T12:07:10.729Z,13.60
2019-03-09T12:09:42.691Z,13.62
2019-03-09T12:12:14.708Z,13.55
2019-03-09T12:20:04.911Z,13.76
2019-03-09T12:22:39.951Z,14.25
2019-03-09T12:25:12.213Z,14.02
2019-03-09T12:27:44.408Z,13.89
2019-03-09T12:30:21.843Z,13.88
2019-03-09T12:33:06.438Z,13.82
2019-03-09T12:36:02.870Z,13.89
2019-03-09T12:38:39.676Z,14.05
2019-03-09T12:41:15.486Z,13.98
2019-03-09T12:48:24.446Z,13.81
2019-03-09T12:51:13.553Z,13.52
2019-03-09T12:54:38.031Z,13.37
2019-03-09T12:57:43.549Z,13.30
2019-03-09T13:00:22.066Z,13.31
2019-03-09T13:03:12.660Z,13.35
2019-03-09T13:05:56.894Z,13.33
2019-03-09T13:08:32.234Z,13.23
2019-03-09T13:11:05.336Z,13.47
2019-03-09T13:13:37.867Z,13.73
2019-03-09T13:16:10.126Z,13.81
2019-03-09T13:18:47.480Z,14.05
2019-03-09T13:21:16.221Z,14.09
2019-03-09T13:23:48.314Z,14.16
2019-03-09T13:26:20.520Z,14.11
2019-03-09T13:28:52.443Z,14.28
2019-03-09T13:31:25.542Z,14.20
2019-03-09T13:34:04.330Z,14.20
2019-03-09T13:36:42.969Z,14.16
2019-03-09T13:39:16.551Z,14.34
2019-03-09T13:41:59.790Z,14.31
2019-03-09T13:44:33.493Z,14.44
2019-03-09T13:47:08.029Z,14.34
2019-03-09T13:49:41.905Z,14.39
2019-03-09T13:52:21.704Z,14.25
2019-03-09T13:55:01.431Z,14.15
2019-03-09T13:57:38.280Z,14.13
2019-03-09T14:00:22.308Z,14.35
2019-03-09T14:02:59.330Z,14.48
2019-03-09T14:05:36.305Z,14.33
2019-03-09T14:08:16.061Z,14.30
2019-03-09T14:10:48.277Z,13.94
2019-03-09T14:13:26.367Z,13.89
2019-03-09T14:15:58.325Z,13.69
2019-03-09T14:18:30.230Z,14.01
2019-03-09T14:21:02.118Z,13.76
2019-03-09T14:23:34.018Z,13.58
2019-03-09T14:26:06.019Z,13.91
2019-03-09T14:28:37.835Z,14.14
2019-03-09T14:31:09.665Z,14.23
2019-03-09T14:33:41.657Z,14.10
2019-03-09T14:36:13.581Z,13.87
2019-03-09T14:38:45.496Z,13.83
2019-03-09T14:41:20.611Z,13.67
2019-03-09T14:43:52.485Z,13.30
2019-03-09T14:46:24.545Z,13.52
2019-03-09T14:48:58.897Z,13.41
2019-03-09T14:51:36.262Z,13.32
2019-03-09T14:54:11.135Z,13.32
2019-03-09T14:56:46.864Z,13.06
2019-03-09T14:59:28.399Z,12.91
2019-03-09T15:02:00.264Z,13.12
2019-03-09T15:05:02.505Z,13.26
2019-03-09T15:07:39.670Z,13.09
2019-03-09T15:10:19.236Z,12.76
2019-03-09T15:12:56.794Z,12.46
2019-03-09T15:15:33.878Z,12.21
2019-03-09T15:18:06.981Z,12.12
2019-03-09T15:20:42.922Z,12.09
2019-03-09T15:23:29.821Z,12.26
2019-03-09T15:26:05.599Z,12.11
2019-03-09T15:28:37.581Z,12.12
2019-03-09T15:31:20.013Z,12.40
2019-03-09T15:33:56.826Z,12.18
2019-03-09T15:36:37.482Z,12.39
2019-03-09T15:39:17.029Z,12.19
2019-03-09T15:42:16.896Z,12.41
2019-03-09T15:45:05.508Z,12.52
2019-03-09T15:47:44.973Z,12.27
2019-03-09T15:50:22.366Z,12.01
2019-03-09T15:53:38.606Z,11.83
2019-03-09T15:56:21.949Z,11.75
2019-03-09T15:58:58.089Z,11.46
2019-03-09T16:01:32.527Z,11.43
2019-03-09T16:04:11.153Z,11.28
2019-03-09T16:06:44.507Z,11.13
2019-03-09T16:09:21.070Z,11.08
2019-03-09T16:11:52.944Z,11.04
2019-03-09T16:14:24.819Z,11.05
2019-03-09T16:16:56.939Z,11.04
2019-03-09T16:19:39.896Z,10.98
2019-03-09T16:22:16.280Z,10.94
2019-03-09T16:25:01.255Z,10.91
2019-03-09T16:27:35.220Z,10.84
2019-03-09T16:30:17.297Z,10.77
2019-03-09T16:32:51.024Z,10.68
2019-03-09T16:35:33.454Z,10.61
2019-03-09T16:38:09.708Z,10.41
2019-03-09T16:40:41.872Z,10.24
2019-03-09T16:43:38.792Z,10.12
2019-03-09T16:46:14.100Z,10.03
2019-03-09T16:48:53.888Z,9.86
2019-03-09T16:51:38.276Z,9.81
2019-03-09T16:54:13.133Z,9.76
2019-03-09T16:57:15.452Z,9.75
2019-03-09T16:59:48.923Z,8.83
2019-03-09T17:02:28.232Z,9.81
2019-03-09T17:05:01.372Z,9.83
2019-03-09T17:07:43.144Z,9.84
2019-03-09T17:10:24.940Z,9.90
2019-03-09T17:13:04.808Z,10.01
2019-03-09T17:15:46.463Z,10.03
2019-03-09T17:18:42.854Z,10.11
2019-03-09T17:21:19.752Z,10.24
2019-03-09T17:23:53.088Z,10.39
2019-03-09T17:26:46.809Z,10.50
2019-03-09T17:29:35.353Z,10.55
2019-03-09T17:32:03.916Z,10.62
2019-03-09T17:34:35.925Z,10.61
2019-03-09T17:37:12.291Z,10.65
2019-03-09T17:39:48.669Z,10.65
2019-03-09T17:43:06.530Z,10.64
2019-03-09T17:45:48.849Z,10.58
2019-03-09T17:48:41.253Z,10.56
2019-03-09T17:51:19.414Z,10.51
2019-03-09T17:54:00.339Z,10.45
2019-03-09T17:56:49.022Z,10.43
2019-03-09T17:59:30.764Z,10.42
2019-03-09T18:05:01.869Z,10.61
2019-03-09T18:07:45.217Z,8.20
2019-03-09T18:10:39.981Z,7.95
2019-03-09T18:13:21.680Z,7.79
2019-03-09T18:15:55.701Z,7.49
2019-03-09T18:21:26.893Z,7.04
2019-03-09T18:24:02.687Z,6.27
2019-03-09T18:26:51.978Z,5.63
2019-03-09T18:29:32.017Z,6.22
2019-03-09T18:32:15.412Z,6.27
2019-03-09T18:34:49.413Z,6.20
2019-03-09T18:37:33.991Z,6.24
2019-03-09T18:40:05.453Z,6.27
2019-03-09T18:42:37.385Z,6.27
2019-03-09T18:45:15.891Z,6.39
2019-03-09T18:47:54.777Z,6.41
2019-03-09T18:50:31.867Z,6.41
2019-03-09T18:53:13.109Z,6.40
2019-03-09T18:55:58.857Z,6.44
2019-03-09T18:58:27.732Z,6.55
2019-03-09T19:01:05.228Z,6.56
2019-03-09T19:03:39.736Z,6.56
2019-03-09T19:06:11.679Z,6.41
2019-03-09T19:09:03.687Z,6.29
2019-03-09T19:11:38.179Z,6.36
2019-03-09T19:14:17.247Z,6.32
2019-03-09T19:16:48.674Z,6.16
2019-03-09T19:19:21.393Z,6.15
2019-03-09T19:21:53.721Z,6.13
2019-03-09T19:24:25.658Z,6.13
2019-03-09T19:26:58.020Z,6.27
2019-03-09T19:29:30.182Z,6.40
2019-03-09T19:32:02.287Z,6.52
2019-03-09T19:34:42.770Z,6.53
2019-03-09T19:37:17.578Z,6.66
2019-03-09T19:39:56.479Z,6.85
2019-03-09T19:42:32.893Z,6.80
2019-03-09T19:45:08.915Z,7.04
2019-03-09T19:47:53.754Z,7.19
2019-03-09T19:50:30.338Z,7.21
2019-03-09T19:53:09.899Z,7.26
2019-03-09T19:55:47.314Z,7.02
2019-03-09T19:58:22.726Z,6.85
2019-03-09T20:01:05.097Z,6.56
2019-03-09T20:03:38.709Z,6.49
2019-03-09T20:06:11.921Z,6.46
2019-03-09T20:08:44.055Z,6.29
2019-03-09T20:11:16.726Z,6.18
2019-03-09T20:13:48.916Z,6.10
2019-03-09T20:16:20.931Z,6.06
2019-03-09T20:18:55.304Z,6.14
2019-03-09T20:21:27.246Z,6.16
2019-03-09T20:24:00.314Z,6.22
2019-03-09T20:26:33.616Z,6.05
2019-03-09T20:29:06.031Z,6.09
2019-03-09T20:31:38.165Z,6.07
2019-03-09T20:34:16.851Z,5.99
2019-03-09T20:36:45.967Z,6.21
2019-03-09T20:39:20.814Z,6.29
2019-03-09T20:41:53.047Z,6.37
2019-03-09T20:44:25.410Z,6.41
2019-03-09T20:47:01.124Z,6.45
2019-03-09T20:49:32.957Z,6.46
2019-03-09T20:52:11.970Z,6.52
2019-03-09T20:54:44.110Z,6.58
2019-03-09T20:57:18.257Z,6.73
2019-03-09T20:59:52.027Z,6.75
2019-03-09T21:02:25.256Z,6.73
2019-03-09T21:04:57.327Z,6.75
2019-03-09T21:07:29.235Z,6.80
2019-03-09T21:10:01.362Z,6.90
2019-03-09T21:12:33.354Z,6.91
2019-03-09T21:15:05.690Z,6.87
2019-03-09T21:17:37.729Z,6.90
2019-03-09T21:20:09.757Z,6.92
2019-03-09T21:22:41.922Z,6.97
2019-03-09T21:25:13.916Z,7.04
2019-03-09T21:27:45.995Z,6.92
2019-03-09T21:30:17.942Z,7.04
2019-03-09T21:32:49.966Z,7.02
2019-03-09T21:35:21.837Z,6.96
2019-03-09T21:37:55.673Z,6.90
2019-03-09T21:40:27.711Z,6.89
2019-03-09T21:43:01.621Z,6.83
2019-03-09T21:45:33.775Z,6.80
2019-03-09T21:48:06.022Z,6.80
2019-03-09T21:50:50.405Z,6.76
2019-03-09T21:53:26.600Z,6.81
2019-03-09T21:55:58.724Z,6.81
2019-03-09T21:58:30.931Z,6.77
2019-03-09T22:01:03.130Z,6.83
2019-03-09T22:03:38.020Z,6.83
2019-03-09T22:06:12.786Z,6.88
2019-03-09T22:08:46.931Z,6.87
2019-03-09T22:11:23.027Z,6.87
2019-03-09T22:13:55.719Z,6.87
2019-03-09T22:16:28.196Z,6.85
2019-03-09T22:19:02.596Z,6.88
2019-03-09T22:21:34.683Z,6.91
2019-03-09T22:24:06.635Z,6.88
2019-03-09T22:26:38.693Z,6.80
2019-03-09T22:29:10.855Z,6.73
2019-03-09T22:31:42.826Z,6.67
2019-03-09T22:34:14.938Z,6.64
2019-03-09T22:36:47.062Z,6.62
2019-03-09T22:39:19.185Z,6.64
2019-03-09T22:41:51.156Z,6.59
2019-03-09T22:44:23.208Z,6.60
2019-03-09T22:46:55.820Z,6.50
2019-03-09T22:49:27.887Z,6.47
2019-03-09T22:51:59.939Z,6.50
2019-03-09T22:54:31.913Z,6.45
2019-03-09T22:57:03.862Z,6.42
2019-03-09T22:59:35.781Z,6.28
2019-03-09T23:02:08.069Z,6.13
2019-03-09T23:04:40.032Z,6.03
2019-03-09T23:07:11.955Z,5.94
2019-03-09T23:09:43.832Z,6.03
2019-03-09T23:12:15.662Z,5.99
2019-03-09T23:14:47.554Z,5.96
2019-03-09T23:17:19.689Z,5.85
2019-03-09T23:19:51.624Z,5.80
2019-03-09T23:22:23.657Z,5.67
2019-03-09T23:24:55.563Z,5.62
2019-03-09T23:27:27.450Z,5.53
2019-03-09T23:29:59.462Z,5.44
2019-03-09T23:32:31.471Z,5.42
2019-03-09T23:35:03.348Z,5.38
2019-03-09T23:37:35.359Z,5.25
2019-03-09T23:40:08.373Z,5.19
2019-03-09T23:42:40.189Z,5.11
2019-03-09T23:45:13.890Z,5.13
2019-03-09T23:47:46.148Z,5.20
2019-03-09T23:50:18.794Z,5.19
2019-03-09T23:52:51.424Z,5.14
2019-03-09T23:55:23.489Z,5.11
2019-03-09T23:57:55.418Z,4.80
